Список аэропортов
Фактическая погода:

21 апреля, 19:20
Температура: +22°C (+22.0*)
Ветер: восточный 5 м/с
Давление: *762 мм
не опр.
Время (МСК)Темп. СВетерВлажностьДавлениеОблачностьОсадки
15:00+20В, 3 м/с36%1020 гПаясно
16:00+22В, 3 м/с33%1019 гПаясно
17:00+22ЮВ, 3 м/с30%1018 гПаясно
18:00+23В, 2 м/с31%1018 гПаясно
19:00+23В, 3 м/с31%1017 гПаясно
20:00+22В, 4 м/с32%1017 гПаясно
21:00+20В, 5 м/с34%1016 гПаясно
22:00+19В, 4 м/с41%1016 гПаясно
23:00+17В, 4 м/с48%1016 гПаясно
22 апреля
00:00+15В, 3 м/с54%1016 гПаясно
01:00+13В, 4 м/с57%1016 гПаясно
02:00+12В, 4 м/с59%1015 гПаясно
03:00+11В, 3 м/с65%1015 гПаясно
04:00+9СВ, 3 м/с72%1014 гПаясно
05:00+8СВ, 3 м/с76%1013 гПаясно
06:00+8СВ, 3 м/с79%1012 гПаясно
07:00+7СВ, 3 м/с82%1011 гПаясно
08:00+6СВ, 3 м/с88%1011 гПамалооблачно
09:00+7СВ, 3 м/с88%1010 гПаоблачно
10:00+9СВ, 4 м/с83%1010 гПаоблачно
11:00+12В, 5 м/с72%1009 гПаоблачно
12:00+15В, 5 м/с58%1009 гПаоблачно
13:00+19В, 6 м/с44%1008 гПаоблачно
14:00+21В, 8 м/с36%1008 гПамалооблачно
15:00+23В, 8 м/с32%1007 гПамалооблачно
16:00+24В, 8 м/с30%1007 гПамалооблачно
17:00+24ЮВ, 7 м/с31%1006 гПас прояснениями
18:00+24ЮВ, 6 м/с32%1005 гПамалооблачно
19:00+24ЮВ, 6 м/с32%1005 гПамалооблачно
20:00+23ЮВ, 6 м/с34%1005 гПас прояснениями
21:00+22В, 6 м/с34%1005 гПас прояснениями
22:00+21В, 6 м/с38%1005 гПас прояснениями
23:00+19В, 5 м/с40%1005 гПамалооблачно
23 апреля
00:00+17СВ, 4 м/с46%1005 гПамалооблачно
01:00+16СВ, 5 м/с51%1005 гПас прояснениями
02:00+14СВ, 5 м/с56%1004 гПас прояснениями
03:00+13СВ, 4 м/с62%1004 гПаясно
04:00+12СВ, 4 м/с69%1003 гПаясно
05:00+11СВ, 4 м/с74%1003 гПаясно
06:00+11СВ, 4 м/с80%1002 гПаясно
07:00+10СВ, 4 м/с83%1002 гПаоблачно
08:00+10СВ, 5 м/с82%1002 гПас прояснениями
09:00+11СВ, 5 м/с78%1003 гПамалооблачно
10:00+12В, 6 м/с69%1002 гПаоблачно
11:00+14В, 6 м/с58%1002 гПаоблачно
12:00+16В, 6 м/с49%1002 гПаоблачно
13:00+17В, 7 м/с43%1002 гПаоблачно
14:00+18В, 8 м/с40%1001 гПаоблачно
15:00+19В, 8 м/с38%1001 гПамалооблачно